Time;durP1;ratioP1;P1;durP2;ratioP2;P2;SDS_P1;SDS_P2;PMS_P1;PMS_P2;Temp;Humidity;BMP_temperature;BMP_pressure;BME280_temperature;BME280_humidity;BME280_pressure;Samples;Min_cycle;Max_cycle;Signal;HPM_P1;HPM_P2
2021/11/23 00:00:20;;;;;;;11.02;6.88;;;;;;;4.04;81.52;97031.31;5147785;27;20047;-71
2021/11/23 00:02:46;;;;;;;10.90;6.78;;;;;;;4.07;81.67;97036.16;5148926;27;20051;-72
2021/11/23 00:05:14;;;;;;;11.98;7.20;;;;;;;4.06;81.71;97039.94;5147800;27;20505;-71
2021/11/23 00:07:42;;;;;;;12.85;6.93;;;;;;;3.97;81.63;97042.31;5149421;27;20075;-72
2021/11/23 00:10:09;;;;;;;11.20;6.72;;;;;;;3.95;81.64;97046.34;5145057;27;20046;-71
2021/11/23 00:12:36;;;;;;;11.40;6.75;;;;;;;3.97;81.67;97045.03;5128485;28;20520;-71
2021/11/23 00:15:05;;;;;;;10.77;6.78;;;;;;;4.00;81.97;97043.69;5127103;28;20054;-71
2021/11/23 00:17:31;;;;;;;11.43;7.07;;;;;;;4.02;81.79;97052.31;5128167;28;20051;-71
2021/11/23 00:19:58;;;;;;;10.55;6.47;;;;;;;3.99;81.78;97050.16;5127761;28;20051;-72
2021/11/23 00:22:24;;;;;;;12.55;7.13;;;;;;;3.96;82.07;97050.66;5127999;28;20047;-71
2021/11/23 00:24:51;;;;;;;11.73;6.97;;;;;;;3.88;81.89;97050.06;5128537;28;20043;-73
2021/11/23 00:27:17;;;;;;;12.45;7.20;;;;;;;3.85;81.63;97055.97;5129145;27;20046;-71
2021/11/23 00:29:44;;;;;;;12.15;7.07;;;;;;;3.88;81.60;97055.47;5132653;27;20092;-71
2021/11/23 00:32:11;;;;;;;9.90;6.20;;;;;;;3.91;81.75;97054.94;5131103;27;20050;-71
2021/11/23 00:34:38;;;;;;;11.23;7.07;;;;;;;3.91;81.32;97064.88;5132499;27;20055;-71
2021/11/23 00:37:04;;;;;;;11.10;7.10;;;;;;;3.86;81.12;97065.69;5130687;27;20532;-71
2021/11/23 00:39:31;;;;;;;9.50;6.15;;;;;;;3.87;81.45;97061.91;5132227;27;20659;-71
2021/11/23 00:41:57;;;;;;;11.35;6.53;;;;;;;3.87;81.38;97063.81;5130880;27;20039;-71
2021/11/23 00:44:24;;;;;;;12.27;6.90;;;;;;;3.89;80.83;97062.47;5131484;27;20046;-72
2021/11/23 00:46:50;;;;;;;12.07;6.70;;;;;;;3.83;80.59;97063.50;5131579;27;20047;-72
2021/11/23 00:49:18;;;;;;;13.75;7.25;;;;;;;3.77;80.81;97072.63;5130904;27;20047;-71
2021/11/23 00:51:45;;;;;;;10.70;6.55;;;;;;;3.71;81.19;97076.34;5131745;27;20058;-72
2021/11/23 00:54:12;;;;;;;14.23;7.63;;;;;;;3.68;80.80;97074.16;5130602;27;20047;-71
2021/11/23 00:56:39;;;;;;;12.18;7.00;;;;;;;3.64;80.90;97073.84;5131851;27;20047;-71
2021/11/23 00:59:06;;;;;;;12.70;7.47;;;;;;;3.62;80.98;97067.09;5130025;27;20455;-71
2021/11/23 01:01:33;;;;;;;12.95;7.20;;;;;;;3.62;80.86;97064.41;5131690;27;20042;-71
2021/11/23 01:03:59;;;;;;;11.23;7.32;;;;;;;3.65;80.66;97062.00;5130845;27;20054;-71
2021/11/23 01:06:27;;;;;;;11.23;7.40;;;;;;;3.61;80.44;97070.84;5130618;27;20112;-71
2021/11/23 01:08:54;;;;;;;12.65;7.28;;;;;;;3.57;80.61;97064.34;5131174;27;20055;-72
2021/11/23 01:11:21;;;;;;;13.30;6.78;;;;;;;3.56;80.95;97068.13;5130097;27;20051;-71
2021/11/23 01:13:50;;;;;;;11.82;6.85;;;;;;;3.55;80.55;97077.25;5131016;27;20412;-71
2021/11/23 01:16:18;;;;;;;12.57;7.03;;;;;;;3.50;80.50;97074.50;5129673;27;20078;-72
2021/11/23 01:18:44;;;;;;;11.68;7.05;;;;;;;3.47;81.05;97080.41;5131388;27;20043;-72
2021/11/23 01:21:13;;;;;;;10.50;6.70;;;;;;;3.50;81.07;97085.28;5129410;27;20059;-71
2021/11/23 01:23:42;;;;;;;11.65;7.00;;;;;;;3.47;80.84;97080.41;5131430;27;20118;-72
2021/11/23 01:26:08;;;;;;;13.10;7.22;;;;;;;3.46;80.58;97081.47;5129628;27;20409;-71
2021/11/23 01:28:36;;;;;;;14.00;7.13;;;;;;;3.47;80.40;97092.00;5131053;27;20047;-71
2021/11/23 01:31:02;;;;;;;12.48;7.28;;;;;;;3.47;80.25;97085.78;5129589;27;20047;-70
2021/11/23 01:33:29;;;;;;;13.38;6.47;;;;;;;3.46;79.83;97084.19;5130496;27;20078;-71
2021/11/23 01:35:56;;;;;;;12.02;6.57;;;;;;;3.46;79.58;97081.47;5130709;27;20039;-71
2021/11/23 01:38:22;;;;;;;9.77;6.10;;;;;;;3.45;79.76;97079.88;5129729;27;20081;-71
2021/11/23 01:40:50;;;;;;;12.55;7.10;;;;;;;3.43;79.81;97074.72;5129986;27;20054;-72
2021/11/23 01:43:17;;;;;;;11.13;7.00;;;;;;;3.42;79.45;97074.97;5129242;27;20494;-71
2021/11/23 01:45:44;;;;;;;10.95;6.90;;;;;;;3.35;79.39;97084.06;5131018;27;20043;-71
2021/11/23 01:48:11;;;;;;;12.93;7.50;;;;;;;3.31;79.61;97085.63;5129466;27;20047;-71
2021/11/23 01:50:38;;;;;;;11.45;6.28;;;;;;;3.28;79.30;97080.75;5130807;27;20043;-71
2021/11/23 01:53:07;;;;;;;12.15;6.60;;;;;;;3.30;79.69;97081.34;5129392;27;20502;-71
2021/11/23 01:55:35;;;;;;;10.60;6.53;;;;;;;3.29;79.82;97082.41;5130239;27;20134;-71
2021/11/23 01:58:05;;;;;;;11.38;6.85;;;;;;;3.29;79.93;97079.72;5129745;27;20130;-70
2021/11/23 02:00:33;;;;;;;12.25;7.03;;;;;;;3.25;79.58;97083.16;5130274;27;20070;-71
2021/11/23 02:03:00;;;;;;;11.90;7.20;;;;;;;3.24;79.82;97084.22;5130928;27;20043;-71
2021/11/23 02:05:27;;;;;;;12.10;7.32;;;;;;;3.27;80.13;97084.50;5129347;27;20043;-71
2021/11/23 02:07:54;;;;;;;12.40;7.50;;;;;;;3.29;79.72;97085.09;5130781;27;20047;-71
2021/11/23 02:10:21;;;;;;;13.15;7.07;;;;;;;3.29;80.10;97081.56;5128545;27;20043;-71
2021/11/23 02:12:48;;;;;;;12.30;7.10;;;;;;;3.27;80.38;97081.81;5130347;27;20047;-71
2021/11/23 02:15:17;;;;;;;12.07;6.93;;;;;;;3.28;80.52;97082.63;5129118;27;20616;-71
2021/11/23 02:17:46;;;;;;;13.00;7.35;;;;;;;3.28;79.86;97088.81;5129904;27;20043;-71
2021/11/23 02:20:17;;;;;;;12.30;7.45;;;;;;;3.26;80.08;97079.41;5129089;27;20043;-71
2021/11/23 02:22:44;;;;;;;13.60;7.90;;;;;;;3.25;79.43;97081.28;5129472;27;20727;-72
2021/11/23 02:25:11;;;;;;;11.35;7.07;;;;;;;3.18;79.37;97083.34;5129249;27;20054;-70
2021/11/23 02:27:39;;;;;;;12.82;7.43;;;;;;;3.15;79.29;97078.47;5128866;27;20058;-71
2021/11/23 02:30:08;;;;;;;14.02;7.30;;;;;;;3.11;79.46;97086.22;5129740;27;20096;-71
2021/11/23 02:32:39;;;;;;;11.90;7.13;;;;;;;3.09;79.75;97084.88;5128737;27;20053;-71
2021/11/23 02:35:07;;;;;;;13.18;7.22;;;;;;;3.05;79.41;97095.31;5129144;27;20058;-70
2021/11/23 02:37:41;;;;;;;13.35;7.20;;;;;;;3.00;79.72;97091.75;5129275;27;20070;-72
2021/11/23 02:40:09;;;;;;;12.65;7.45;;;;;;;2.94;79.42;97092.75;5129599;27;20521;-71
2021/11/23 02:42:35;;;;;;;16.05;8.02;;;;;;;2.90;79.54;97091.63;5149906;27;20045;-71
2021/11/23 02:45:02;;;;;;;12.93;7.85;;;;;;;2.79;79.86;97086.13;5149307;27;20394;-70
2021/11/23 02:47:32;;;;;;;15.57;8.13;;;;;;;2.74;80.00;97094.13;5150113;27;20070;-71
2021/11/23 02:49:59;;;;;;;14.00;7.25;;;;;;;2.69;80.01;97091.38;5148904;27;20050;-71
2021/11/23 02:52:25;;;;;;;12.77;7.50;;;;;;;2.68;79.73;97097.00;5149712;27;20054;-71
2021/11/23 02:54:58;;;;;;;12.52;7.65;;;;;;;2.64;79.70;97094.00;5149397;27;20043;-71
2021/11/23 02:57:26;;;;;;;14.45;6.75;;;;;;;2.54;79.71;97099.25;5149430;27;20057;-72
2021/11/23 02:59:53;;;;;;;14.80;7.88;;;;;;;2.53;80.22;97095.75;5149280;27;20043;-71
2021/11/23 03:02:21;;;;;;;14.25;8.13;;;;;;;2.54;80.43;97094.66;5148894;27;20051;-71
2021/11/23 03:04:51;;;;;;;12.38;7.72;;;;;;;2.56;80.15;97097.13;5149645;27;20050;-71
2021/11/23 03:07:17;;;;;;;12.02;7.22;;;;;;;2.52;80.41;97102.19;5148661;27;20050;-71
2021/11/23 03:09:44;;;;;;;13.50;7.65;;;;;;;2.50;80.52;97098.09;5149887;27;20078;-71
2021/11/23 03:12:15;;;;;;;12.77;7.93;;;;;;;2.52;80.73;97096.00;5146937;27;20058;-71
2021/11/23 03:14:42;;;;;;;13.20;8.07;;;;;;;2.52;80.99;97090.63;5150328;27;20121;-72
2021/11/23 03:17:08;;;;;;;12.68;7.50;;;;;;;2.52;80.81;97098.69;5148133;27;20062;-71
2021/11/23 03:19:35;;;;;;;13.73;7.53;;;;;;;2.56;80.42;97091.75;5149587;27;20041;-71
2021/11/23 03:22:03;;;;;;;14.55;7.53;;;;;;;2.53;80.46;97089.56;5148472;27;20046;-71
2021/11/23 03:24:30;;;;;;;13.52;7.80;;;;;;;2.51;80.49;97083.63;5149156;27;20107;-72
2021/11/23 03:26:56;;;;;;;17.20;8.10;;;;;;;2.53;80.50;97087.69;5149102;27;20038;-72
2021/11/23 03:29:24;;;;;;;12.98;7.30;;;;;;;2.51;80.25;97083.63;5148243;27;20046;-71
2021/11/23 03:31:51;;;;;;;14.38;8.23;;;;;;;2.44;79.88;97082.97;5149547;27;20047;-71
2021/11/23 03:34:17;;;;;;;12.57;6.88;;;;;;;2.35;79.91;97083.41;5147887;27;20049;-71
2021/11/23 03:36:45;;;;;;;12.80;7.25;;;;;;;2.28;80.18;97085.44;5149325;27;20042;-71
2021/11/23 03:39:13;;;;;;;13.38;7.05;;;;;;;2.23;80.13;97076.50;5138703;27;20057;-71
2021/11/23 03:41:39;;;;;;;15.13;7.88;;;;;;;2.15;79.76;97080.44;5148878;27;20493;-71
2021/11/23 03:44:06;;;;;;;15.15;7.78;;;;;;;2.11;80.09;97073.91;5147628;27;20049;-71
2021/11/23 03:46:34;;;;;;;14.00;7.63;;;;;;;2.04;79.89;97078.66;5125350;27;20051;-71
2021/11/23 03:49:00;;;;;;;14.65;7.57;;;;;;;2.01;79.87;97085.31;5128301;27;20058;-71
2021/11/23 03:51:27;;;;;;;12.10;7.65;;;;;;;1.93;79.92;97082.22;5127413;27;20043;-71
2021/11/23 03:53:54;;;;;;;15.45;8.82;;;;;;;1.85;79.93;97085.31;5128457;27;20050;-71
2021/11/23 03:56:21;;;;;;;14.98;8.20;;;;;;;1.76;80.26;97090.28;5126801;28;20815;-71
2021/11/23 03:58:48;;;;;;;16.00;8.25;;;;;;;1.70;80.59;97084.00;5128396;28;20064;-71
2021/11/23 04:01:14;;;;;;;13.15;7.40;;;;;;;1.69;80.66;97093.13;5127938;27;20051;-71
2021/11/23 04:03:42;;;;;;;14.88;7.82;;;;;;;1.65;80.76;97097.34;5132896;27;20051;-71
2021/11/23 04:06:09;;;;;;;14.70;7.75;;;;;;;1.60;80.70;97091.91;5131348;27;20070;-71
2021/11/23 04:08:35;;;;;;;18.25;8.23;;;;;;;1.49;80.19;97095.47;5132351;27;20047;-71
2021/11/23 04:11:02;;;;;;;13.43;7.47;;;;;;;1.37;80.54;97100.09;5131148;27;20054;-70
2021/11/23 04:13:28;;;;;;;13.25;7.50;;;;;;;1.28;80.98;97100.47;5131897;27;20761;-71
2021/11/23 04:15:55;;;;;;;14.10;7.95;;;;;;;1.24;81.30;97106.53;5131492;27;20050;-71
2021/11/23 04:18:21;;;;;;;14.77;8.65;;;;;;;1.18;81.79;97102.16;5131164;27;22235;-71
2021/11/23 04:20:49;;;;;;;17.73;8.82;;;;;;;1.11;82.06;97102.28;5132250;27;20040;-71
2021/11/23 04:23:15;;;;;;;14.07;8.30;;;;;;;1.09;82.19;97099.03;5130681;27;20076;-71
2021/11/23 04:25:42;;;;;;;16.75;8.07;;;;;;;1.03;82.27;97111.53;5132486;27;20430;-71
2021/11/23 04:28:08;;;;;;;18.17;9.18;;;;;;;1.01;82.62;97107.47;5130786;27;20418;-71
2021/11/23 04:30:35;;;;;;;18.33;8.98;;;;;;;0.95;83.01;97103.88;5131941;27;20748;-72
2021/11/23 04:33:01;;;;;;;17.35;9.07;;;;;;;1.00;83.12;97111.19;5130598;27;20414;-70
2021/11/23 04:35:28;;;;;;;17.55;9.15;;;;;;;1.02;83.33;97114.44;5131570;27;20054;-71
2021/11/23 04:37:56;;;;;;;16.05;8.93;;;;;;;0.99;83.29;97110.38;5131624;27;20039;-71
2021/11/23 04:40:22;;;;;;;17.48;8.65;;;;;;;0.94;83.43;97112.13;5130673;27;20051;-71
2021/11/23 04:42:49;;;;;;;17.98;9.20;;;;;;;0.93;83.45;97118.56;5131525;27;20043;-71
2021/11/23 04:45:16;;;;;;;18.63;9.43;;;;;;;0.92;83.42;97125.78;5129924;27;20043;-71
2021/11/23 04:47:43;;;;;;;16.00;8.43;;;;;;;0.89;83.47;97126.28;5132022;27;20051;-71
2021/11/23 04:50:11;;;;;;;17.10;8.40;;;;;;;0.86;83.58;97128.59;5130341;27;20043;-71
2021/11/23 04:52:37;;;;;;;18.88;9.82;;;;;;;0.86;83.47;97137.47;5131751;27;20054;-71
2021/11/23 04:55:06;;;;;;;17.00;9.45;;;;;;;0.83;83.60;97142.47;5130555;27;20076;-71
2021/11/23 04:57:33;;;;;;;17.40;9.00;;;;;;;0.81;83.80;97134.69;5131476;27;20043;-71
2021/11/23 05:00:00;;;;;;;16.50;8.80;;;;;;;0.78;83.75;97135.97;5131025;27;20058;-71
2021/11/23 05:02:26;;;;;;;19.98;9.77;;;;;;;0.81;83.87;97133.88;5130436;27;20061;-71
2021/11/23 05:04:53;;;;;;;20.27;9.88;;;;;;;0.77;83.60;97142.38;5131411;27;20043;-71
2021/11/23 05:07:19;;;;;;;20.40;9.52;;;;;;;0.74;83.65;97150.09;5129968;27;20043;-71
2021/11/23 05:09:46;;;;;;;16.30;9.05;;;;;;;0.75;83.62;97151.72;5131105;27;20058;-71
2021/11/23 05:12:14;;;;;;;23.65;10.35;;;;;;;0.74;83.69;97155.44;5129427;27;20703;-71
2021/11/23 05:14:40;;;;;;;17.42;9.27;;;;;;;0.70;83.40;97160.47;5130391;27;20054;-71
2021/11/23 05:17:07;;;;;;;19.88;9.48;;;;;;;0.71;83.53;97151.34;5128387;27;20047;-70
2021/11/23 05:19:33;;;;;;;16.40;9.35;;;;;;;0.68;83.49;97148.31;5129874;27;20051;-71
2021/11/23 05:22:00;;;;;;;18.67;9.13;;;;;;;0.69;83.58;97153.47;5129110;27;20080;-71
2021/11/23 05:24:27;;;;;;;18.63;9.75;;;;;;;0.70;83.35;97143.56;5129283;27;20038;-71
2021/11/23 05:26:53;;;;;;;17.10;9.55;;;;;;;0.68;83.36;97151.00;5129484;27;20039;-71
2021/11/23 05:29:21;;;;;;;18.50;9.23;;;;;;;0.65;83.44;97146.94;5128665;27;20513;-71
2021/11/23 05:31:47;;;;;;;20.38;8.65;;;;;;;0.64;83.34;97150.69;5130377;27;20047;-71
2021/11/23 05:34:14;;;;;;;17.98;9.63;;;;;;;0.62;83.03;97147.41;5129383;27;20050;-71
2021/11/23 05:36:40;;;;;;;18.20;9.18;;;;;;;0.60;82.93;97148.69;5130859;27;20043;-71
2021/11/23 05:39:07;;;;;;;19.42;10.18;;;;;;;0.56;82.86;97152.91;5129304;27;20047;-71
2021/11/23 05:41:33;;;;;;;16.65;8.77;;;;;;;0.55;83.12;97156.63;5130002;27;20047;-71
2021/11/23 05:44:00;;;;;;;19.40;9.38;;;;;;;0.52;83.04;97157.91;5129869;27;20498;-71
2021/11/23 05:46:28;;;;;;;20.60;9.88;;;;;;;0.49;82.82;97153.84;5129566;27;20039;-71
2021/11/23 05:48:55;;;;;;;18.95;9.75;;;;;;;0.45;82.92;97157.22;5130227;27;20043;-71
2021/11/23 05:51:22;;;;;;;20.98;10.27;;;;;;;0.43;83.05;97153.97;5129124;27;20092;-70
2021/11/23 05:53:48;;;;;;;20.05;10.48;;;;;;;0.39;83.35;97163.50;5130240;27;20047;-71
2021/11/23 05:56:15;;;;;;;18.63;10.15;;;;;;;0.36;83.19;97155.94;5128990;27;20054;-70
2021/11/23 05:58:42;;;;;;;17.48;9.70;;;;;;;0.34;83.54;97155.34;5130358;27;20043;-70
2021/11/23 06:01:08;;;;;;;18.17;9.45;;;;;;;0.30;83.58;97159.53;5128291;27;20387;-71
2021/11/23 06:03:36;;;;;;;20.23;10.07;;;;;;;0.29;83.55;97164.09;5130139;27;20054;-71
2021/11/23 06:06:03;;;;;;;19.80;10.88;;;;;;;0.27;83.37;97160.84;5128578;27;20055;-70
2021/11/23 06:08:30;;;;;;;20.58;10.50;;;;;;;0.26;83.40;97164.53;5129775;27;20693;-71
2021/11/23 06:10:57;;;;;;;21.88;10.38;;;;;;;0.26;83.55;97167.22;5129175;27;20050;-71
2021/11/23 06:13:23;;;;;;;21.63;10.43;;;;;;;0.24;83.69;97170.13;5128873;27;20051;-70
2021/11/23 06:15:50;;;;;;;20.13;9.80;;;;;;;0.22;83.57;97174.91;5128936;27;20050;-71
2021/11/23 06:18:17;;;;;;;19.17;10.23;;;;;;;0.19;83.50;97170.00;5128896;27;20043;-71
2021/11/23 06:20:46;;;;;;;20.20;10.68;;;;;;;0.17;83.52;97180.16;5129618;27;20538;-70
2021/11/23 06:23:14;;;;;;;18.80;9.77;;;;;;;0.16;83.40;97183.88;5127785;27;20051;-71
2021/11/23 06:25:42;;;;;;;19.80;10.45;;;;;;;0.12;83.28;97173.88;5128714;27;20067;-71
2021/11/23 06:28:09;;;;;;;18.90;9.75;;;;;;;0.10;83.49;97170.59;5128248;27;20062;-70
2021/11/23 06:30:36;;;;;;;21.75;10.30;;;;;;;0.12;83.54;97177.34;5129264;27;20054;-71
2021/11/23 06:33:02;;;;;;;18.27;9.90;;;;;;;0.12;83.69;97179.22;5128121;27;20061;-70
2021/11/23 06:35:29;;;;;;;19.48;9.50;;;;;;;0.14;83.43;97182.47;5128739;27;20576;-71
2021/11/23 06:37:56;;;;;;;21.23;10.05;;;;;;;0.13;83.54;97181.66;5129283;27;20043;-71
2021/11/23 06:40:23;;;;;;;20.40;10.05;;;;;;;0.14;83.68;97188.63;5127751;27;20552;-71
2021/11/23 06:42:49;;;;;;;17.17;9.52;;;;;;;0.15;83.68;97190.25;5129350;27;20063;-71
2021/11/23 06:45:16;;;;;;;17.48;9.45;;;;;;;0.17;83.72;97206.13;5127455;27;20043;-71
2021/11/23 06:47:43;;;;;;;17.33;9.68;;;;;;;0.15;83.74;97203.66;5129664;27;20047;-71
2021/11/23 06:50:10;;;;;;;17.05;9.48;;;;;;;0.12;83.52;97206.00;5127641;27;20050;-70
2021/11/23 06:52:36;;;;;;;17.90;9.77;;;;;;;0.07;83.37;97209.38;5128658;27;20047;-71
2021/11/23 06:55:05;;;;;;;16.33;9.60;;;;;;;0.02;83.32;97222.63;5127620;27;20052;-70
2021/11/23 06:57:32;;;;;;;19.63;11.63;;;;;;;0.02;83.57;97227.97;5129035;27;20043;-71
2021/11/23 06:59:58;;;;;;;19.77;9.88;;;;;;;0.03;84.05;97226.94;5128554;27;20061;-72
2021/11/23 07:02:25;;;;;;;19.15;9.77;;;;;;;0.02;83.74;97232.53;5127502;27;20054;-71
2021/11/23 07:04:51;;;;;;;22.05;9.80;;;;;;;-0.06;83.79;97230.97;5128748;27;20042;-71
2021/11/23 07:07:18;;;;;;;20.33;10.02;;;;;;;-0.13;83.86;97236.44;5127791;27;20725;-70
2021/11/23 07:09:44;;;;;;;17.17;8.95;;;;;;;-0.17;84.72;97237.13;5128858;27;20524;-73
2021/11/23 07:12:13;;;;;;;18.52;9.65;;;;;;;-0.16;84.99;97246.78;5126665;27;20791;-73
2021/11/23 07:14:39;;;;;;;23.70;10.38;;;;;;;-0.13;85.55;97246.34;5128523;27;20050;-73
2021/11/23 07:17:06;;;;;;;20.63;10.50;;;;;;;-0.06;85.57;97244.38;5127445;27;20047;-72
2021/11/23 07:19:33;;;;;;;22.30;12.45;;;;;;;0.04;85.88;97255.34;5128995;27;20043;-71
2021/11/23 07:21:59;;;;;;;25.98;11.60;;;;;;;0.14;85.48;97250.25;5128764;27;20049;-72
2021/11/23 07:24:27;;;;;;;20.77;10.77;;;;;;;0.26;85.04;97255.63;5128814;27;20043;-72
2021/11/23 07:26:54;;;;;;;18.27;10.55;;;;;;;0.37;84.69;97252.16;5129275;27;20039;-72
2021/11/23 07:29:22;;;;;;;18.25;10.18;;;;;;;0.52;84.75;97254.38;5128306;27;20057;-72
2021/11/23 07:31:48;;;;;;;19.25;9.38;;;;;;;0.62;83.75;97246.56;5129681;27;20058;-72
2021/11/23 07:34:15;;;;;;;17.70;9.30;;;;;;;0.80;83.87;97251.03;5127834;27;20046;-71
2021/11/23 07:36:42;;;;;;;18.75;9.57;;;;;;;0.92;83.12;97254.50;5128937;27;20052;-72
2021/11/23 07:39:08;;;;;;;17.10;9.25;;;;;;;1.02;82.79;97260.09;5127373;27;20054;-71
2021/11/23 07:41:36;;;;;;;15.43;9.15;;;;;;;1.23;82.45;97255.97;5128652;27;20043;-71
2021/11/23 07:44:05;;;;;;;17.13;8.98;;;;;;;1.28;82.18;97258.78;5124871;27;20065;-71
2021/11/23 07:46:33;;;;;;;15.80;8.82;;;;;;;1.30;81.59;97259.38;5129277;27;20058;-72
2021/11/23 07:48:59;;;;;;;15.43;8.80;;;;;;;1.54;82.17;97253.94;5128797;27;20482;-72
2021/11/23 07:51:26;;;;;;;16.25;8.20;;;;;;;1.90;81.08;97249.25;5127822;27;20489;-72
2021/11/23 07:53:52;;;;;;;14.70;8.32;;;;;;;2.26;79.99;97243.44;5129316;27;20043;-72
2021/11/23 07:56:20;;;;;;;14.88;7.57;;;;;;;2.65;78.32;97251.59;5127944;27;20043;-72
2021/11/23 07:58:46;;;;;;;14.63;8.18;;;;;;;3.11;77.98;97249.56;5129076;27;20047;-72
2021/11/23 08:01:13;;;;;;;12.35;7.47;;;;;;;3.48;76.04;97248.97;5086536;28;20048;-72
2021/11/23 08:03:42;;;;;;;15.02;8.43;;;;;;;3.65;73.55;97247.88;5088102;28;20051;-72
2021/11/23 08:06:08;;;;;;;15.52;8.07;;;;;;;4.00;72.43;97245.78;5087089;28;20048;-72
2021/11/23 08:08:35;;;;;;;13.30;7.57;;;;;;;4.31;70.81;97247.72;5087531;28;20055;-73
2021/11/23 08:11:02;;;;;;;16.08;8.32;;;;;;;4.45;68.56;97253.50;5087266;28;20052;-71
2021/11/23 08:13:29;;;;;;;11.60;7.40;;;;;;;4.53;68.71;97265.69;5087892;28;20047;-72
2021/11/23 08:15:55;;;;;;;13.25;8.05;;;;;;;4.48;68.54;97268.34;5104369;28;20054;-72
2021/11/23 08:18:22;;;;;;;12.20;7.47;;;;;;;4.36;69.45;97266.63;5106384;28;20502;-72
2021/11/23 08:20:50;;;;;;;17.65;7.70;;;;;;;4.32;70.20;97268.22;5108358;28;20043;-72
2021/11/23 08:23:17;;;;;;;16.63;8.57;;;;;;;4.31;70.32;97274.69;5106600;28;20044;-72
2021/11/23 08:25:44;;;;;;;16.58;8.93;;;;;;;4.21;69.58;97268.38;5108457;28;20128;-72
2021/11/23 08:28:10;;;;;;;18.65;9.52;;;;;;;4.09;70.09;97276.63;5106844;28;20055;-72
2021/11/23 08:30:37;;;;;;;14.57;8.05;;;;;;;3.98;70.82;97261.41;5107547;28;20044;-72
2021/11/23 08:33:04;;;;;;;13.73;7.72;;;;;;;3.80;70.95;97274.13;5106884;28;20055;-72
2021/11/23 08:35:30;;;;;;;12.68;7.45;;;;;;;3.66;71.94;97262.13;5107539;28;20048;-72
2021/11/23 08:37:58;;;;;;;12.68;7.72;;;;;;;3.50;72.30;97258.44;5107629;28;20043;-72
2021/11/23 08:40:25;;;;;;;15.88;8.68;;;;;;;3.36;72.66;97271.44;5106546;28;20047;-72
2021/11/23 08:42:52;;;;;;;14.98;8.43;;;;;;;3.22;73.53;97270.19;5107947;28;20051;-72
2021/11/23 08:45:19;;;;;;;17.98;9.93;;;;;;;3.12;74.32;97272.72;5105125;28;20051;-71
2021/11/23 08:47:47;;;;;;;15.30;8.93;;;;;;;3.09;75.50;97273.25;5108267;28;20039;-72
2021/11/23 08:50:13;;;;;;;16.25;8.65;;;;;;;3.05;75.82;97280.16;5110264;28;20054;-73
2021/11/23 08:52:41;;;;;;;18.33;9.10;;;;;;;3.05;76.08;97277.47;5111419;28;20545;-72
2021/11/23 08:55:10;;;;;;;14.63;8.90;;;;;;;3.09;76.36;97279.44;5110349;28;20051;-72
2021/11/23 08:57:37;;;;;;;18.05;9.05;;;;;;;3.10;76.40;97280.25;5111512;28;20039;-72
2021/11/23 09:00:13;;;;;;;15.63;9.15;;;;;;;3.14;76.69;97281.38;5128341;27;20154;-72
2021/11/23 09:02:40;;;;;;;14.23;8.95;;;;;;;3.15;76.31;97277.63;5152222;27;20038;-72
2021/11/23 09:05:09;;;;;;;15.32;9.00;;;;;;;3.13;75.41;97290.50;5152622;27;20496;-72
2021/11/23 09:07:35;;;;;;;12.60;8.07;;;;;;;3.19;76.56;97284.16;5151813;27;20070;-72
2021/11/23 09:10:02;;;;;;;14.52;8.75;;;;;;;3.26;76.52;97287.47;5152248;27;20046;-71
2021/11/23 09:12:30;;;;;;;18.83;9.73;;;;;;;3.36;76.17;97294.88;5151809;27;20126;-72
2021/11/23 09:14:57;;;;;;;16.13;9.95;;;;;;;3.45;76.40;97290.69;5150792;27;20038;-72
2021/11/23 09:17:24;;;;;;;16.60;8.18;;;;;;;3.54;75.37;97301.81;5151677;27;20045;-72
2021/11/23 09:19:50;;;;;;;21.35;9.70;;;;;;;3.70;76.25;97303.66;5152091;27;20057;-72
2021/11/23 09:22:17;;;;;;;13.48;8.52;;;;;;;3.90;74.75;97301.19;5151678;27;20058;-71
2021/11/23 09:24:43;;;;;;;16.08;9.18;;;;;;;4.13;74.83;97302.81;5151794;27;20039;-72
2021/11/23 09:27:10;;;;;;;14.68;8.35;;;;;;;4.37;74.69;97295.22;5151684;27;20043;-71
2021/11/23 09:29:38;;;;;;;14.70;7.88;;;;;;;4.58;74.82;97301.63;5151464;27;20055;-72
2021/11/23 09:32:07;;;;;;;16.00;9.38;;;;;;;4.79;72.11;97302.59;5152014;27;20049;-71
2021/11/23 09:34:33;;;;;;;15.60;8.63;;;;;;;5.02;71.74;97296.06;5152201;27;20035;-72
2021/11/23 09:37:00;;;;;;;13.35;8.85;;;;;;;5.18;71.17;97289.69;5132293;27;20059;-72
2021/11/23 09:39:26;;;;;;;12.95;8.32;;;;;;;5.33;69.75;97294.38;5130063;27;20756;-72
2021/11/23 09:41:53;;;;;;;12.15;7.80;;;;;;;5.44;70.39;97290.66;5131167;27;20054;-73
2021/11/23 09:44:20;;;;;;;12.27;7.28;;;;;;;5.55;69.35;97288.81;5130096;27;20047;-72
2021/11/23 09:46:48;;;;;;;12.77;8.10;;;;;;;5.71;69.47;97292.41;5130769;27;20042;-73
2021/11/23 09:49:14;;;;;;;11.02;7.47;;;;;;;5.87;68.50;97291.38;5130767;27;20517;-72
2021/11/23 09:51:41;;;;;;;11.98;7.32;;;;;;;5.95;68.49;97287.38;5130209;27;20047;-73
2021/11/23 09:54:10;;;;;;;14.05;7.57;;;;;;;6.01;67.84;97297.94;5130794;27;20051;-72
2021/11/23 09:56:37;;;;;;;12.98;8.07;;;;;;;6.19;68.56;97285.00;5130161;27;20069;-72
2021/11/23 09:59:05;;;;;;;11.65;7.60;;;;;;;6.46;67.37;97280.19;5130504;27;20047;-73
2021/11/23 10:01:45;;;;;;;13.48;7.28;;;;;;;6.66;66.14;97278.59;5130159;27;20051;-73
2021/11/23 10:04:13;;;;;;;11.55;7.30;;;;;;;7.01;67.49;97275.06;5130323;27;20067;-73
2021/11/23 10:06:53;;;;;;;9.90;6.85;;;;;;;7.30;62.80;97278.00;5130567;27;20061;-73
2021/11/23 10:09:27;;;;;;;12.30;6.90;;;;;;;7.60;62.30;97277.09;5130057;27;20549;-73
2021/11/23 10:12:11;;;;;;;13.75;7.15;;;;;;;7.87;61.63;97271.31;5131210;27;20051;-72
2021/11/23 10:14:39;;;;;;;11.77;6.80;;;;;;;8.02;60.36;97270.44;5135786;27;20070;-72
2021/11/23 10:17:24;;;;;;;11.52;6.88;;;;;;;8.18;61.21;97263.81;5151015;27;20139;-71
2021/11/23 10:19:51;;;;;;;12.23;8.13;;;;;;;8.13;61.18;97263.03;5151048;27;20561;-72
2021/11/23 10:22:30;;;;;;;10.75;6.97;;;;;;;8.26;59.97;97270.59;5150504;27;20047;-72
2021/11/23 10:24:59;;;;;;;11.15;7.15;;;;;;;8.49;60.60;97259.03;5151166;27;20047;-72
2021/11/23 10:27:25;;;;;;;9.57;6.60;;;;;;;8.58;59.27;97257.34;5150341;27;20054;-73
2021/11/23 10:29:52;;;;;;;8.52;5.88;;;;;;;8.67;57.57;97256.78;5151426;27;20042;-72
2021/11/23 10:32:19;;;;;;;10.30;6.68;;;;;;;8.85;57.54;97269.63;5150129;27;20520;-72
2021/11/23 10:34:46;;;;;;;10.63;6.50;;;;;;;8.98;58.40;97263.56;5151291;27;20097;-72
2021/11/23 10:37:30;;;;;;;12.27;6.60;;;;;;;9.29;56.01;97266.81;5149946;27;20416;-72
2021/11/23 10:40:11;;;;;;;11.05;6.78;;;;;;;9.54;57.21;97262.19;5150651;27;20599;-72
2021/11/23 10:42:38;;;;;;;8.85;6.00;;;;;;;9.76;55.69;97259.75;5144092;27;20050;-72
2021/11/23 10:45:09;;;;;;;8.95;6.45;;;;;;;9.90;54.65;97263.38;5139170;27;20038;-72
2021/11/23 10:47:37;;;;;;;11.00;6.25;;;;;;;10.04;53.53;97259.97;5150998;27;20046;-72
2021/11/23 10:50:06;;;;;;;9.82;6.53;;;;;;;10.23;53.40;97257.25;5149230;27;20047;-72
2021/11/23 10:52:38;;;;;;;9.38;7.05;;;;;;;10.16;53.10;97255.69;5150737;27;20113;-72
2021/11/23 10:55:08;;;;;;;12.93;7.18;;;;;;;9.93;53.48;97256.56;5149326;27;20054;-71
2021/11/23 10:57:41;;;;;;;12.27;6.88;;;;;;;9.90;55.76;97257.13;5150307;27;20047;-72
2021/11/23 11:00:09;;;;;;;13.23;7.55;;;;;;;9.88;56.83;97251.19;5149128;27;20103;-71
2021/11/23 11:02:39;;;;;;;11.57;7.13;;;;;;;9.76;54.44;97253.50;5149984;27;20130;-72
2021/11/23 11:05:07;;;;;;;12.73;6.97;;;;;;;9.53;56.79;97253.22;5150044;27;20043;-71
2021/11/23 11:07:36;;;;;;;9.43;6.53;;;;;;;9.30;56.97;97245.88;5149546;27;20135;-72
2021/11/23 11:10:03;;;;;;;10.13;6.93;;;;;;;9.23;56.28;97239.94;5149936;27;20046;-71
2021/11/23 11:12:30;;;;;;;10.15;7.35;;;;;;;9.17;55.92;97235.66;5149016;27;20046;-72
2021/11/23 11:14:58;;;;;;;12.18;6.22;;;;;;;9.26;55.18;97236.66;5139668;27;20050;-72
2021/11/23 11:17:26;;;;;;;11.23;6.78;;;;;;;9.08;55.37;97233.59;5128352;27;20039;-72
2021/11/23 11:19:54;;;;;;;8.90;6.60;;;;;;;9.10;56.39;97231.38;5129696;27;20047;-72
2021/11/23 11:22:23;;;;;;;8.75;5.95;;;;;;;9.06;55.16;97238.47;5128488;27;20047;-72
2021/11/23 11:27:44;;;;;;;12.38;5.70;;;;;;;8.98;55.43;97222.81;5129171;27;20050;-72
2021/11/23 11:30:27;;;;;;;11.05;6.47;;;;;;;8.85;55.71;97224.28;5128286;27;20448;-72
2021/11/23 11:33:02;;;;;;;11.35;6.10;;;;;;;8.67;57.97;97226.91;5129665;27;20046;-72
2021/11/23 11:35:31;;;;;;;10.05;5.70;;;;;;;8.40;56.29;97227.34;5128561;27;20468;-72